Time;durP1;ratioP1;P1;durP2;ratioP2;P2;SDS_P1;SDS_P2;PMS_P1;PMS_P2;Temp;Humidity;BMP_temperature;BMP_pressure;BME280_temperature;BME280_humidity;BME280_pressure;Samples;Min_cycle;Max_cycle;Signal;HPM_P1;HPM_P2
2021/10/31 00:02:18;;;;;;;69.43;47.90;;;;;;;;;;5030287;28;20033;-94
2021/10/31 00:04:44;;;;;;;71.88;48.40;;;;;;;;;;5030641;28;20483;-94
2021/10/31 00:07:10;;;;;;;64.03;46.03;;;;;;;;;;5030304;28;20025;-94
2021/10/31 00:09:36;;;;;;;68.95;47.05;;;;;;;;;;5041317;28;20470;-94
2021/10/31 00:12:04;;;;;;;66.53;47.03;;;;;;;;;;5066784;28;20017;-94
2021/10/31 00:14:30;;;;;;;68.90;48.00;;;;;;;;;;5066704;28;20029;-94
2021/10/31 00:16:59;;;;;;;66.72;47.72;;;;;;;;;;5066821;28;20021;-95
2021/10/31 00:19:26;;;;;;;70.15;48.50;;;;;;;;;;5066282;28;20049;-94
2021/10/31 00:21:52;;;;;;;66.63;48.70;;;;;;;;;;5066567;28;20025;-94
2021/10/31 00:24:18;;;;;;;67.75;46.88;;;;;;;;;;5066510;28;20021;-95
2021/10/31 00:26:44;;;;;;;66.25;48.00;;;;;;;;;;5066180;28;20060;-94
2021/10/31 00:29:10;;;;;;;69.88;47.53;;;;;;;;;;5065330;28;20045;-94
2021/10/31 00:31:36;;;;;;;66.30;47.70;;;;;;;;;;5049663;28;20431;-94
2021/10/31 00:34:03;;;;;;;67.60;47.33;;;;;;;;;;5066788;28;20024;-94
2021/10/31 00:36:29;;;;;;;68.25;48.38;;;;;;;;;;5050652;28;20025;-94
2021/10/31 00:38:56;;;;;;;68.90;48.35;;;;;;;;;;5059673;28;20303;-94
2021/10/31 00:41:22;;;;;;;65.03;48.33;;;;;;;;;;5029722;28;20029;-94
2021/10/31 00:43:48;;;;;;;74.97;52.67;;;;;;;;;;5030240;28;20396;-94
2021/10/31 00:46:14;;;;;;;74.43;52.80;;;;;;;;;;5031901;28;20025;-95
2021/10/31 00:48:41;;;;;;;75.55;52.22;;;;;;;;;;5052532;28;20053;-94
2021/10/31 00:51:07;;;;;;;70.75;49.75;;;;;;;;;;5051585;28;20057;-95
2021/10/31 00:53:33;;;;;;;70.20;51.85;;;;;;;;;;5066567;28;20075;-94
2021/10/31 00:56:00;;;;;;;77.60;53.70;;;;;;;;;;5066074;28;20021;-94
2021/10/31 00:58:26;;;;;;;76.70;53.88;;;;;;;;;;5061621;28;20116;-95
2021/10/31 01:00:52;;;;;;;72.65;51.67;;;;;;;;;;5029152;28;20404;-94
2021/10/31 01:03:18;;;;;;;73.50;51.13;;;;;;;;;;5029482;28;20067;-94
2021/10/31 01:05:47;;;;;;;71.72;51.45;;;;;;;;;;5029464;28;20059;-93
2021/10/31 01:08:18;;;;;;;68.90;49.60;;;;;;;;;;5031545;28;20037;-95
2021/10/31 01:10:56;;;;;;;71.63;51.28;;;;;;;;;;5030036;28;20080;-94
2021/10/31 01:13:22;;;;;;;73.78;51.30;;;;;;;;;;5029496;28;20079;-94
2021/10/31 01:16:07;;;;;;;73.35;50.47;;;;;;;;;;5029724;28;20488;-94
2021/10/31 01:19:01;;;;;;;73.10;50.78;;;;;;;;;;5033363;28;20079;-93
2021/10/31 01:21:47;;;;;;;75.70;52.15;;;;;;;;;;5066166;28;20379;-94
2021/10/31 01:24:28;;;;;;;74.43;50.13;;;;;;;;;;5066140;28;20060;-94
2021/10/31 01:26:57;;;;;;;71.88;50.70;;;;;;;;;;5066174;28;20056;-95
2021/10/31 01:29:26;;;;;;;71.78;49.90;;;;;;;;;;5066160;28;20487;-94
2021/10/31 01:32:11;;;;;;;70.70;50.17;;;;;;;;;;5055573;28;20464;-95
2021/10/31 01:34:37;;;;;;;73.75;49.90;;;;;;;;;;5035510;28;20036;-94
2021/10/31 01:37:09;;;;;;;70.80;50.03;;;;;;;;;;5034964;28;20029;-94
2021/10/31 01:39:35;;;;;;;71.78;51.00;;;;;;;;;;5033600;28;20025;-94
2021/10/31 01:42:21;;;;;;;71.97;49.25;;;;;;;;;;5049469;28;20097;-94
2021/10/31 01:45:06;;;;;;;73.85;50.42;;;;;;;;;;5052570;28;20079;-94
2021/10/31 01:47:41;;;;;;;71.85;51.17;;;;;;;;;;5052903;28;20021;-94
2021/10/31 01:50:14;;;;;;;73.90;51.97;;;;;;;;;;5052590;28;20104;-94
2021/10/31 01:52:42;;;;;;;71.50;52.25;;;;;;;;;;5052200;28;20019;-93
2021/10/31 01:55:11;;;;;;;73.32;52.90;;;;;;;;;;5069463;28;20497;-94
2021/10/31 01:57:40;;;;;;;71.43;52.45;;;;;;;;;;5069181;28;20493;-95
2021/10/31 02:00:09;;;;;;;76.68;51.75;;;;;;;;;;5069382;28;20120;-94
2021/10/31 02:02:40;;;;;;;70.32;52.08;;;;;;;;;;5064662;28;20087;-94
2021/10/31 02:05:07;;;;;;;78.82;54.13;;;;;;;;;;5032669;28;20065;-95
2021/10/31 02:07:35;;;;;;;79.55;55.08;;;;;;;;;;5032454;28;20799;-94
2021/10/31 02:10:02;;;;;;;77.72;54.58;;;;;;;;;;5032293;28;20129;-94
2021/10/31 02:12:29;;;;;;;79.43;55.35;;;;;;;;;;5041001;28;20104;-94
2021/10/31 02:14:55;;;;;;;71.75;52.13;;;;;;;;;;5052552;28;20036;-94
2021/10/31 02:17:21;;;;;;;75.35;51.20;;;;;;;;;;5051593;28;20021;-94
2021/10/31 02:19:48;;;;;;;72.60;52.67;;;;;;;;;;5051999;28;20045;-94
2021/10/31 02:22:16;;;;;;;72.10;51.67;;;;;;;;;;5052301;28;20124;-94
2021/10/31 02:24:45;;;;;;;76.22;52.72;;;;;;;;;;5068905;28;20043;-94
2021/10/31 02:27:22;;;;;;;71.57;51.67;;;;;;;;;;5068834;28;20083;-94
2021/10/31 02:29:52;;;;;;;74.90;51.03;;;;;;;;;;5068576;28;20158;-94
2021/10/31 02:32:19;;;;;;;74.38;53.10;;;;;;;;;;5068624;28;20025;-93
2021/10/31 02:34:45;;;;;;;73.13;53.30;;;;;;;;;;5060989;28;20041;-94
2021/10/31 02:37:11;;;;;;;75.85;52.80;;;;;;;;;;5031832;28;20419;-95
2021/10/31 02:39:38;;;;;;;79.05;54.17;;;;;;;;;;5031628;28;20017;-94
2021/10/31 02:42:05;;;;;;;78.85;52.95;;;;;;;;;;5031576;28;20124;-94
2021/10/31 02:44:31;;;;;;;79.50;54.92;;;;;;;;;;5032097;28;20037;-94
2021/10/31 02:46:58;;;;;;;74.38;53.25;;;;;;;;;;5040184;28;20025;-94
2021/10/31 02:49:24;;;;;;;76.72;53.30;;;;;;;;;;5068457;28;20040;-94
2021/10/31 02:52:01;;;;;;;70.07;50.15;;;;;;;;;;5068659;28;20028;-94
2021/10/31 02:54:27;;;;;;;71.72;53.28;;;;;;;;;;5068912;28;20056;-93
2021/10/31 02:57:19;;;;;;;78.35;53.42;;;;;;;;;;5068561;28;20308;-93
2021/10/31 02:59:51;;;;;;;77.28;53.50;;;;;;;;;;5036052;28;20076;-93
2021/10/31 03:02:18;;;;;;;75.13;52.73;;;;;;;;;;5033489;28;20076;-94
2021/10/31 03:04:45;;;;;;;76.55;52.42;;;;;;;;;;5040678;28;20016;-94
2021/10/31 03:07:12;;;;;;;77.47;52.83;;;;;;;;;;5035133;28;20022;-93
2021/10/31 03:09:39;;;;;;;76.55;52.60;;;;;;;;;;5034303;28;20087;-94
2021/10/31 03:12:06;;;;;;;74.60;51.53;;;;;;;;;;5048358;28;20040;-94
2021/10/31 03:14:33;;;;;;;76.50;54.05;;;;;;;;;;5070334;28;20107;-94
2021/10/31 03:16:59;;;;;;;76.05;52.75;;;;;;;;;;5070038;28;20435;-93
2021/10/31 03:19:25;;;;;;;70.25;49.85;;;;;;;;;;5069993;28;20075;-93
2021/10/31 03:21:51;;;;;;;69.10;47.97;;;;;;;;;;5054739;28;20023;-94
2021/10/31 03:24:17;;;;;;;73.63;51.05;;;;;;;;;;5054631;28;20273;-94
2021/10/31 03:26:43;;;;;;;71.68;49.38;;;;;;;;;;5033533;28;20520;-93
2021/10/31 03:29:09;;;;;;;71.80;48.42;;;;;;;;;;5033712;28;20045;-93
2021/10/31 03:31:35;;;;;;;68.40;47.97;;;;;;;;;;5033674;28;20419;-94
2021/10/31 03:34:02;;;;;;;72.25;49.60;;;;;;;;;;5033535;28;20029;-94
2021/10/31 03:36:28;;;;;;;70.65;48.45;;;;;;;;;;5050386;28;20025;-93
2021/10/31 03:38:54;;;;;;;69.65;49.47;;;;;;;;;;5054125;28;20108;-94
2021/10/31 03:41:20;;;;;;;70.95;48.08;;;;;;;;;;5052928;28;20024;-94
2021/10/31 03:43:46;;;;;;;73.10;49.70;;;;;;;;;;5053058;28;20033;-94
2021/10/31 03:46:12;;;;;;;71.32;49.13;;;;;;;;;;5052324;28;20029;-94
2021/10/31 03:48:38;;;;;;;72.43;46.80;;;;;;;;;;5069596;28;20029;-94
2021/10/31 03:51:04;;;;;;;66.10;47.30;;;;;;;;;;5064542;28;20025;-94
2021/10/31 03:53:30;;;;;;;66.47;45.90;;;;;;;;;;5048406;28;20040;-95
2021/10/31 03:55:56;;;;;;;64.10;45.63;;;;;;;;;;5069104;28;20033;-94
2021/10/31 03:58:22;;;;;;;63.38;45.30;;;;;;;;;;5069264;28;20029;-94
2021/10/31 04:00:48;;;;;;;64.88;45.70;;;;;;;;;;5069755;28;20029;-94
2021/10/31 04:03:14;;;;;;;62.13;43.17;;;;;;;;;;5059548;28;20483;-93
2021/10/31 04:05:40;;;;;;;60.05;43.88;;;;;;;;;;5033605;28;20030;-95
2021/10/31 04:08:07;;;;;;;63.20;44.25;;;;;;;;;;5050783;28;20037;-94
2021/10/31 04:10:33;;;;;;;59.88;42.22;;;;;;;;;;5050683;28;20522;-95
2021/10/31 04:12:59;;;;;;;61.10;43.00;;;;;;;;;;5049634;28;20388;-95
2021/10/31 04:15:25;;;;;;;60.60;41.67;;;;;;;;;;5050263;28;20032;-94
2021/10/31 04:17:51;;;;;;;58.58;41.90;;;;;;;;;;5050002;28;20390;-94
2021/10/31 04:20:17;;;;;;;59.05;41.05;;;;;;;;;;5066355;28;20057;-94
2021/10/31 04:22:45;;;;;;;62.00;43.28;;;;;;;;;;5066484;28;20071;-95
2021/10/31 04:25:11;;;;;;;54.92;39.03;;;;;;;;;;5066541;28;20043;-94
2021/10/31 04:27:37;;;;;;;57.05;39.33;;;;;;;;;;5066638;28;20029;-94
2021/10/31 04:30:04;;;;;;;57.60;39.63;;;;;;;;;;5047498;28;20244;-94
2021/10/31 04:32:30;;;;;;;54.83;39.10;;;;;;;;;;5045361;28;20116;-94
2021/10/31 04:34:56;;;;;;;55.88;38.17;;;;;;;;;;5066287;28;20479;-95
2021/10/31 04:37:24;;;;;;;56.63;38.08;;;;;;;;;;5066323;28;20082;-95
2021/10/31 04:39:50;;;;;;;54.33;37.05;;;;;;;;;;5066316;28;20025;-93
2021/10/31 04:42:17;;;;;;;56.42;39.42;;;;;;;;;;5060505;28;20033;-94
2021/10/31 04:44:43;;;;;;;54.83;37.58;;;;;;;;;;5029666;28;20021;-94
2021/10/31 04:47:09;;;;;;;53.42;37.95;;;;;;;;;;5030025;28;20064;-94
2021/10/31 04:49:35;;;;;;;53.95;36.17;;;;;;;;;;5029839;28;20377;-94
2021/10/31 04:52:02;;;;;;;51.88;35.65;;;;;;;;;;5029410;28;20496;-94
2021/10/31 04:54:28;;;;;;;49.03;34.20;;;;;;;;;;5032830;28;20479;-94
2021/10/31 04:56:54;;;;;;;46.63;33.60;;;;;;;;;;5050648;28;20016;-95
2021/10/31 04:59:20;;;;;;;50.00;31.67;;;;;;;;;;5049440;28;20025;-94
2021/10/31 05:01:46;;;;;;;48.95;32.88;;;;;;;;;;5049353;28;20029;-94
2021/10/31 05:04:13;;;;;;;51.30;32.50;;;;;;;;;;5049889;28;20068;-94
2021/10/31 05:06:39;;;;;;;47.95;33.25;;;;;;;;;;5053372;28;20024;-93
2021/10/31 05:09:05;;;;;;;49.63;32.92;;;;;;;;;;5070198;28;20026;-94
2021/10/31 05:11:31;;;;;;;53.80;34.08;;;;;;;;;;5069972;28;20032;-93
2021/10/31 05:13:57;;;;;;;50.42;32.42;;;;;;;;;;5070246;28;20455;-92
2021/10/31 05:16:23;;;;;;;51.35;33.78;;;;;;;;;;5057452;28;20041;-94
2021/10/31 05:18:49;;;;;;;48.45;32.65;;;;;;;;;;5049676;28;20108;-94
2021/10/31 05:21:15;;;;;;;51.22;34.53;;;;;;;;;;5038324;28;20037;-94
2021/10/31 05:23:41;;;;;;;49.03;32.88;;;;;;;;;;5051766;28;20039;-94
2021/10/31 05:26:07;;;;;;;55.60;35.67;;;;;;;;;;5053125;28;20021;-94
2021/10/31 05:28:33;;;;;;;52.60;35.13;;;;;;;;;;5052805;28;20036;-93
2021/10/31 05:30:59;;;;;;;54.92;34.83;;;;;;;;;;5052824;28;20025;-94
2021/10/31 05:33:26;;;;;;;51.65;35.33;;;;;;;;;;5052813;28;20033;-95
2021/10/31 05:35:52;;;;;;;53.17;32.08;;;;;;;;;;5046534;28;20155;-95
2021/10/31 05:38:20;;;;;;;50.25;32.40;;;;;;;;;;5069979;28;20024;-93
2021/10/31 05:40:47;;;;;;;47.50;32.05;;;;;;;;;;5060698;28;20029;-94
2021/10/31 05:43:13;;;;;;;46.47;30.45;;;;;;;;;;5053063;28;20033;-94
2021/10/31 05:45:39;;;;;;;46.97;30.95;;;;;;;;;;5052300;28;20055;-94
2021/10/31 05:48:06;;;;;;;49.75;31.50;;;;;;;;;;5052623;28;20566;-94
2021/10/31 05:50:32;;;;;;;43.13;29.58;;;;;;;;;;5052927;28;20029;-94
2021/10/31 05:52:58;;;;;;;43.22;30.00;;;;;;;;;;5052849;28;20048;-93
2021/10/31 05:55:24;;;;;;;47.53;30.80;;;;;;;;;;5052588;28;20029;-94
2021/10/31 05:57:50;;;;;;;48.03;30.73;;;;;;;;;;5053804;28;20029;-94
2021/10/31 06:00:17;;;;;;;53.25;31.73;;;;;;;;;;5067792;28;20022;-95
2021/10/31 06:02:44;;;;;;;47.53;31.35;;;;;;;;;;5068701;28;20043;-95
2021/10/31 06:05:12;;;;;;;46.60;31.35;;;;;;;;;;5069122;28;20017;-94
2021/10/31 06:07:38;;;;;;;50.72;32.45;;;;;;;;;;5069178;28;20173;-93
2021/10/31 06:10:04;;;;;;;49.00;32.55;;;;;;;;;;5055921;28;20033;-93
2021/10/31 06:12:30;;;;;;;43.92;30.02;;;;;;;;;;5032493;28;20486;-94
2021/10/31 06:14:57;;;;;;;49.08;31.35;;;;;;;;;;5032367;28;20041;-93
2021/10/31 06:17:23;;;;;;;46.75;29.13;;;;;;;;;;5050250;28;20039;-92
2021/10/31 06:19:49;;;;;;;46.45;31.80;;;;;;;;;;5068752;28;20068;-93
2021/10/31 06:22:15;;;;;;;51.30;32.28;;;;;;;;;;5068958;28;20028;-93
2021/10/31 06:24:41;;;;;;;52.35;32.03;;;;;;;;;;5050376;28;20029;-94
2021/10/31 06:27:07;;;;;;;46.65;30.70;;;;;;;;;;5032550;28;20136;-94
2021/10/31 06:29:34;;;;;;;46.47;30.05;;;;;;;;;;5031425;28;20037;-94
2021/10/31 06:32:00;;;;;;;47.03;31.00;;;;;;;;;;5031969;28;20040;-93
2021/10/31 06:34:26;;;;;;;44.83;28.88;;;;;;;;;;5031560;28;20036;-93
2021/10/31 06:36:52;;;;;;;47.60;29.92;;;;;;;;;;5040335;28;20029;-94
2021/10/31 06:39:18;;;;;;;45.78;28.92;;;;;;;;;;5068524;28;20479;-94
2021/10/31 06:41:44;;;;;;;41.25;28.67;;;;;;;;;;5068464;28;20061;-94
2021/10/31 06:44:10;;;;;;;42.90;29.70;;;;;;;;;;5068437;28;20079;-93
2021/10/31 06:46:36;;;;;;;40.20;27.52;;;;;;;;;;5068813;28;20025;-94
2021/10/31 06:49:04;;;;;;;41.97;28.33;;;;;;;;;;5058215;28;20033;-94
2021/10/31 06:51:30;;;;;;;42.80;27.15;;;;;;;;;;5051585;28;20029;-94
2021/10/31 06:53:56;;;;;;;41.40;27.60;;;;;;;;;;5031141;28;20060;-94
2021/10/31 06:56:25;;;;;;;41.45;27.77;;;;;;;;;;5031832;28;20045;-94
2021/10/31 06:58:51;;;;;;;41.60;26.15;;;;;;;;;;5031673;28;20029;-93
2021/10/31 07:01:18;;;;;;;40.72;25.80;;;;;;;;;;5031659;28;20029;-92
2021/10/31 07:03:47;;;;;;;40.30;25.13;;;;;;;;;;5045795;28;20027;-95
2021/10/31 07:06:15;;;;;;;37.90;25.33;;;;;;;;;;5050893;28;20035;-93
2021/10/31 07:08:41;;;;;;;37.20;24.25;;;;;;;;;;5067910;28;20033;-93
2021/10/31 07:11:07;;;;;;;34.50;23.58;;;;;;;;;;5067752;28;20058;-93
2021/10/31 07:13:33;;;;;;;36.30;24.65;;;;;;;;;;5067885;28;20033;-94
2021/10/31 07:15:59;;;;;;;41.28;26.55;;;;;;;;;;5052869;28;20168;-94
2021/10/31 07:18:25;;;;;;;38.15;26.45;;;;;;;;;;5052236;28;20483;-93
2021/10/31 07:20:51;;;;;;;36.08;23.90;;;;;;;;;;5051052;28;20534;-94
2021/10/31 07:23:18;;;;;;;37.80;25.52;;;;;;;;;;5051138;28;20021;-93
2021/10/31 07:25:44;;;;;;;36.97;24.48;;;;;;;;;;5051147;28;20041;-93
2021/10/31 07:28:10;;;;;;;34.40;24.58;;;;;;;;;;5049682;28;20118;-96
2021/10/31 07:30:36;;;;;;;37.85;23.80;;;;;;;;;;5050621;28;20032;-94
2021/10/31 07:33:03;;;;;;;36.10;24.05;;;;;;;;;;5051402;28;20107;-94
2021/10/31 07:35:30;;;;;;;37.85;25.33;;;;;;;;;;5051640;28;20478;-94
2021/10/31 07:37:56;;;;;;;38.20;26.10;;;;;;;;;;5056371;28;20063;-92
2021/10/31 07:40:23;;;;;;;38.15;25.67;;;;;;;;;;5054231;28;20479;-95
2021/10/31 07:42:50;;;;;;;40.08;26.75;;;;;;;;;;5051131;28;20048;-93
2021/10/31 07:45:16;;;;;;;39.60;27.63;;;;;;;;;;5051089;28;20118;-96
2021/10/31 07:47:42;;;;;;;41.63;29.48;;;;;;;;;;5050758;28;20207;-94
2021/10/31 07:50:09;;;;;;;39.40;28.02;;;;;;;;;;5050665;28;20037;-93
2021/10/31 07:52:35;;;;;;;37.35;26.77;;;;;;;;;;5049711;28;20071;-93
2021/10/31 07:55:04;;;;;;;39.97;28.52;;;;;;;;;;5067451;28;20179;-93
2021/10/31 07:57:33;;;;;;;38.65;27.88;;;;;;;;;;5066903;28;20044;-95
2021/10/31 07:59:59;;;;;;;39.22;26.08;;;;;;;;;;5067299;28;20491;-93
2021/10/31 08:02:25;;;;;;;37.72;27.27;;;;;;;;;;5067547;28;20025;-93
2021/10/31 08:04:51;;;;;;;41.72;28.23;;;;;;;;;;5067803;28;20044;-93
2021/10/31 08:07:18;;;;;;;41.70;28.83;;;;;;;;;;5054000;28;20022;-93
2021/10/31 08:09:44;;;;;;;36.50;27.30;;;;;;;;;;5030936;28;20029;-94
2021/10/31 08:12:10;;;;;;;38.25;26.75;;;;;;;;;;5031280;28;20028;-94
2021/10/31 08:14:36;;;;;;;41.40;28.20;;;;;;;;;;5030422;28;20545;-95
2021/10/31 08:17:02;;;;;;;37.63;26.73;;;;;;;;;;5032741;28;20067;-94
2021/10/31 08:19:28;;;;;;;37.20;26.42;;;;;;;;;;5067429;28;20045;-93
2021/10/31 08:21:57;;;;;;;39.25;27.23;;;;;;;;;;5066750;28;20021;-93
2021/10/31 08:24:24;;;;;;;36.75;26.35;;;;;;;;;;5067548;28;20037;-93
2021/10/31 08:26:50;;;;;;;36.80;27.73;;;;;;;;;;5067448;28;20074;-93
2021/10/31 08:29:21;;;;;;;35.95;27.08;;;;;;;;;;5067780;28;20048;-94
2021/10/31 08:31:50;;;;;;;38.85;28.30;;;;;;;;;;5054358;28;20029;-93
2021/10/31 08:34:16;;;;;;;36.25;27.98;;;;;;;;;;5046441;28;20398;-93
2021/10/31 08:36:42;;;;;;;37.15;26.85;;;;;;;;;;5051848;28;20412;-92
2021/10/31 08:39:08;;;;;;;39.05;27.38;;;;;;;;;;5049765;28;20116;-93
2021/10/31 08:41:35;;;;;;;33.70;25.80;;;;;;;;;;5051127;28;20021;-93
2021/10/31 08:44:01;;;;;;;37.90;27.25;;;;;;;;;;5050137;28;20029;-93
2021/10/31 08:46:28;;;;;;;34.38;26.02;;;;;;;;;;5066440;28;20028;-93
2021/10/31 08:48:55;;;;;;;37.30;26.63;;;;;;;;;;5066447;28;20044;-94
2021/10/31 08:51:24;;;;;;;37.75;26.20;;;;;;;;;;5031249;28;20247;-95
2021/10/31 08:53:50;;;;;;;35.65;25.23;;;;;;;;;;5031140;28;20025;-94
2021/10/31 08:56:17;;;;;;;36.83;27.88;;;;;;;;;;5030310;28;20112;-94
2021/10/31 08:58:43;;;;;;;37.75;26.80;;;;;;;;;;5030339;28;20026;-94
2021/10/31 09:01:14;;;;;;;39.47;26.85;;;;;;;;;;5029854;28;20025;-93
2021/10/31 09:03:41;;;;;;;40.33;28.25;;;;;;;;;;5029427;28;20128;-93
2021/10/31 09:06:07;;;;;;;35.25;27.13;;;;;;;;;;5029908;28;20052;-92
2021/10/31 09:08:33;;;;;;;37.75;26.38;;;;;;;;;;5030581;28;20022;-94
2021/10/31 09:10:59;;;;;;;36.38;27.25;;;;;;;;;;5030421;28;20036;-94
2021/10/31 09:13:25;;;;;;;37.67;28.65;;;;;;;;;;5030734;28;20021;-93
2021/10/31 09:15:52;;;;;;;33.63;26.77;;;;;;;;;;5030779;28;20022;-94
2021/10/31 09:18:18;;;;;;;36.75;25.40;;;;;;;;;;5030039;28;20495;-94
2021/10/31 09:20:44;;;;;;;36.28;27.90;;;;;;;;;;5030186;28;20057;-95
2021/10/31 09:23:13;;;;;;;36.42;26.40;;;;;;;;;;5033324;28;20026;-93
2021/10/31 09:25:39;;;;;;;38.50;26.10;;;;;;;;;;5030178;28;20478;-94
2021/10/31 09:28:06;;;;;;;35.63;25.95;;;;;;;;;;5031088;28;20017;-93
2021/10/31 09:30:34;;;;;;;37.05;26.40;;;;;;;;;;5029267;28;20427;-94
2021/10/31 09:33:00;;;;;;;39.88;25.85;;;;;;;;;;5030985;28;20032;-94
2021/10/31 09:35:27;;;;;;;33.83;27.30;;;;;;;;;;5028216;28;20463;-93
2021/10/31 09:37:57;;;;;;;35.17;27.35;;;;;;;;;;5029721;28;20029;-94
2021/10/31 09:40:24;;;;;;;34.58;26.08;;;;;;;;;;5029389;28;20025;-93
2021/10/31 09:42:51;;;;;;;36.83;28.23;;;;;;;;;;5030566;28;20426;-93
2021/10/31 09:45:20;;;;;;;35.25;27.08;;;;;;;;;;5031040;28;20268;-94
2021/10/31 09:47:52;;;;;;;33.58;26.17;;;;;;;;;;5029349;28;20030;-95
2021/10/31 09:50:18;;;;;;;40.20;27.70;;;;;;;;;;5028661;28;20101;-95
2021/10/31 09:52:45;;;;;;;36.53;27.83;;;;;;;;;;5032451;28;20037;-93
2021/10/31 09:55:11;;;;;;;35.25;27.42;;;;;;;;;;5039316;28;20025;-94
2021/10/31 09:57:37;;;;;;;37.83;26.48;;;;;;;;;;5034113;28;20029;-94
2021/10/31 10:00:04;;;;;;;36.15;25.73;;;;;;;;;;5033821;28;20025;-93
2021/10/31 10:02:44;;;;;;;36.58;27.38;;;;;;;;;;5033477;28;20033;-93
2021/10/31 10:05:16;;;;;;;36.80;25.70;;;;;;;;;;5032982;28;20029;-94
2021/10/31 10:07:42;;;;;;;34.17;25.48;;;;;;;;;;5033312;28;20029;-94
2021/10/31 10:10:12;;;;;;;35.03;26.33;;;;;;;;;;5032525;28;20080;-93
2021/10/31 10:12:38;;;;;;;33.35;26.95;;;;;;;;;;5034033;28;20056;-94
2021/10/31 10:15:06;;;;;;;32.10;24.95;;;;;;;;;;5033105;28;20029;-93
2021/10/31 10:17:50;;;;;;;32.13;25.38;;;;;;;;;;5032971;28;20022;-93
2021/10/31 10:20:16;;;;;;;35.15;25.67;;;;;;;;;;5033179;28;20092;-93
2021/10/31 10:22:43;;;;;;;36.47;25.55;;;;;;;;;;5032866;28;20033;-94
2021/10/31 10:25:09;;;;;;;34.03;25.83;;;;;;;;;;5032659;28;20033;-93
2021/10/31 10:27:46;;;;;;;30.63;24.92;;;;;;;;;;5033947;28;20021;-93
2021/10/31 10:30:17;;;;;;;31.17;24.67;;;;;;;;;;5034707;28;20040;-94
2021/10/31 10:32:49;;;;;;;32.97;24.58;;;;;;;;;;5033806;28;20036;-93
2021/10/31 10:35:19;;;;;;;33.53;23.73;;;;;;;;;;5034209;28;20025;-94
2021/10/31 10:37:45;;;;;;;32.80;25.50;;;;;;;;;;5033960;28;20554;-94
2021/10/31 10:40:12;;;;;;;31.52;24.58;;;;;;;;;;5032138;28;20052;-94
2021/10/31 10:42:42;;;;;;;33.80;25.98;;;;;;;;;;5033548;28;20029;-94
2021/10/31 10:45:14;;;;;;;31.52;24.73;;;;;;;;;;5035674;28;20018;-94
2021/10/31 10:47:53;;;;;;;31.55;23.98;;;;;;;;;;5033420;28;20503;-92
2021/10/31 10:50:30;;;;;;;31.98;24.80;;;;;;;;;;5032772;28;20043;-93
2021/10/31 10:52:56;;;;;;;30.90;24.90;;;;;;;;;;5033502;28;20033;-93
2021/10/31 10:55:22;;;;;;;29.10;24.45;;;;;;;;;;5032576;28;20038;-93
2021/10/31 10:57:51;;;;;;;30.50;25.00;;;;;;;;;;5032035;28;20047;-94
2021/10/31 11:00:27;;;;;;;30.48;23.98;;;;;;;;;;5033227;28;20108;-94
2021/10/31 11:03:01;;;;;;;32.42;23.73;;;;;;;;;;5031819;28;20491;-93
2021/10/31 11:05:30;;;;;;;30.67;24.23;;;;;;;;;;5032034;28;20048;-93
2021/10/31 11:07:57;;;;;;;32.05;24.73;;;;;;;;;;5032444;28;20201;-94
2021/10/31 11:10:25;;;;;;;31.25;24.42;;;;;;;;;;5031788;28;20120;-94
2021/10/31 11:12:53;;;;;;;29.40;23.63;;;;;;;;;;5033543;28;20412;-94
2021/10/31 11:15:26;;;;;;;30.60;23.40;;;;;;;;;;5015559;28;20478;-93
2021/10/31 11:17:53;;;;;;;34.05;25.30;;;;;;;;;;5032818;28;20219;-94
2021/10/31 11:20:22;;;;;;;31.02;24.95;;;;;;;;;;5019957;28;20041;-93
2021/10/31 11:22:49;;;;;;;33.70;25.10;;;;;;;;;;4995345;28;20022;-95
2021/10/31 11:25:17;;;;;;;30.85;24.60;;;;;;;;;;4995482;28;20022;-93
2021/10/31 11:27:43;;;;;;;29.58;24.48;;;;;;;;;;4996559;28;20480;-95
2021/10/31 11:30:09;;;;;;;32.22;24.58;;;;;;;;;;5014381;28;20029;-94
2021/10/31 11:32:37;;;;;;;31.30;25.63;;;;;;;;;;5012837;28;20086;-94
2021/10/31 11:35:04;;;;;;;32.35;24.30;;;;;;;;;;5013176;28;20033;-95
2021/10/31 11:37:58;;;;;;;31.20;25.50;;;;;;;;;;4994898;28;20065;-94
2021/10/31 11:40:29;;;;;;;27.92;24.17;;;;;;;;;;4933749;29;20490;-94
2021/10/31 11:42:56;;;;;;;31.15;23.95;;;;;;;;;;4933847;29;20036;-93
2021/10/31 11:45:24;;;;;;;28.88;24.38;;;;;;;;;;4917603;29;20059;-94
2021/10/31 11:48:09;;;;;;;29.92;24.15;;;;;;;;;;4932753;29;20035;-93
2021/10/31 11:50:35;;;;;;;29.63;25.23;;;;;;;;;;4916746;29;20044;-93
2021/10/31 11:53:02;;;;;;;31.73;26.00;;;;;;;;;;4917200;29;20031;-95
2021/10/31 11:55:33;;;;;;;29.48;24.98;;;;;;;;;;4932584;29;20040;-92
2021/10/31 11:58:26;;;;;;;29.90;24.00;;;;;;;;;;4919115;29;20160;-92
2021/10/31 12:01:15;;;;;;;30.63;24.00;;;;;;;;;;4930493;29;20070;-91
2021/10/31 12:03:54;;;;;;;27.90;23.97;;;;;;;;;;4916795;29;20090;-93
2021/10/31 12:06:24;;;;;;;29.83;24.27;;;;;;;;;;4934846;29;20031;-94
2021/10/31 12:08:55;;;;;;;30.83;24.67;;;;;;;;;;4919534;29;20047;-93
2021/10/31 12:11:29;;;;;;;29.92;24.83;;;;;;;;;;4926395;29;20036;-92
2021/10/31 12:13:57;;;;;;;27.52;23.67;;;;;;;;;;4934721;29;20040;-92
2021/10/31 12:16:24;;;;;;;30.83;23.73;;;;;;;;;;4934668;28;20046;-93
2021/10/31 12:18:50;;;;;;;29.30;23.92;;;;;;;;;;5013197;28;20037;-93
2021/10/31 12:21:19;;;;;;;28.25;23.30;;;;;;;;;;5031534;28;20495;-93
2021/10/31 12:23:54;;;;;;;30.00;24.92;;;;;;;;;;5031690;28;20022;-93
2021/10/31 12:26:22;;;;;;;29.25;23.50;;;;;;;;;;5032169;28;20108;-94
2021/10/31 12:28:48;;;;;;;31.80;25.48;;;;;;;;;;5032007;28;20079;-95
2021/10/31 12:31:24;;;;;;;32.92;24.25;;;;;;;;;;5030522;28;20041;-92
2021/10/31 12:34:09;;;;;;;30.63;24.70;;;;;;;;;;5031746;28;20028;-93
2021/10/31 12:36:36;;;;;;;30.73;24.17;;;;;;;;;;5030663;28;20060;-91
2021/10/31 12:39:22;;;;;;;30.88;25.45;;;;;;;;;;5031998;28;20028;-94
2021/10/31 12:42:08;;;;;;;29.80;23.60;;;;;;;;;;5030903;28;20026;-92
2021/10/31 12:44:35;;;;;;;29.15;23.58;;;;;;;;;;5030277;28;20029;-92
2021/10/31 12:47:10;;;;;;;29.00;22.75;;;;;;;;;;5030821;28;20033;-92
2021/10/31 12:49:38;;;;;;;29.23;22.80;;;;;;;;;;5030191;28;20037;-93
2021/10/31 12:52:04;;;;;;;26.17;20.73;;;;;;;;;;5031074;28;20021;-92
2021/10/31 12:54:35;;;;;;;25.75;20.30;;;;;;;;;;5030211;28;20047;-93
2021/10/31 12:57:10;;;;;;;24.00;20.15;;;;;;;;;;5031376;28;20416;-93
2021/10/31 12:59:47;;;;;;;26.88;21.35;;;;;;;;;;5031065;28;20506;-93
2021/10/31 13:02:15;;;;;;;26.73;23.65;;;;;;;;;;5031883;28;20030;-93
2021/10/31 13:05:07;;;;;;;27.98;22.38;;;;;;;;;;5031012;28;20112;-93
2021/10/31 13:07:38;;;;;;;26.97;21.93;;;;;;;;;;5027641;28;20045;-93
2021/10/31 13:10:06;;;;;;;26.08;21.17;;;;;;;;;;5030004;28;20042;-93
2021/10/31 13:12:32;;;;;;;23.77;18.88;;;;;;;;;;5031347;28;20021;-93
2021/10/31 13:15:07;;;;;;;25.75;20.58;;;;;;;;;;5029836;28;20263;-94
2021/10/31 13:17:34;;;;;;;29.45;23.52;;;;;;;;;;4994689;28;20065;-93
2021/10/31 13:20:12;;;;;;;28.85;21.75;;;;;;;;;;5010387;28;20061;-91
2021/10/31 13:22:40;;;;;;;26.90;22.40;;;;;;;;;;5022619;28;20032;-95
2021/10/31 13:25:07;;;;;;;25.98;21.13;;;;;;;;;;5030377;28;20095;-93
2021/10/31 13:27:33;;;;;;;26.83;22.65;;;;;;;;;;5035001;28;20025;-91
2021/10/31 13:29:59;;;;;;;25.75;21.50;;;;;;;;;;5035285;28;20037;-94
2021/10/31 13:32:26;;;;;;;23.63;20.98;;;;;;;;;;5034668;28;20018;-93
2021/10/31 13:34:54;;;;;;;27.02;22.10;;;;;;;;;;5035659;28;20044;-93
2021/10/31 13:37:23;;;;;;;26.60;20.00;;;;;;;;;;5033905;28;20021;-92
2021/10/31 13:39:59;;;;;;;23.88;19.83;;;;;;;;;;5033605;28;20028;-93
2021/10/31 13:42:35;;;;;;;24.80;20.55;;;;;;;;;;5035096;28;20029;-94
2021/10/31 13:45:03;;;;;;;25.25;19.02;;;;;;;;;;5035577;28;20107;-93
2021/10/31 13:47:38;;;;;;;22.23;19.08;;;;;;;;;;5034279;28;20395;-93
2021/10/31 13:50:09;;;;;;;24.08;19.48;;;;;;;;;;5033531;28;20029;-93
2021/10/31 13:52:36;;;;;;;24.98;19.67;;;;;;;;;;5034039;28;20029;-92
2021/10/31 13:55:06;;;;;;;23.20;19.38;;;;;;;;;;5032835;28;20483;-93
2021/10/31 13:57:34;;;;;;;24.60;20.08;;;;;;;;;;5032886;28;20036;-93
2021/10/31 14:00:00;;;;;;;27.63;21.95;;;;;;;;;;5032957;28;20103;-93
2021/10/31 14:02:27;;;;;;;25.27;19.73;;;;;;;;;;5032200;28;20068;-94
2021/10/31 14:05:11;;;;;;;24.63;20.27;;;;;;;;;;5034070;28;20091;-93
2021/10/31 14:07:44;;;;;;;26.02;20.25;;;;;;;;;;5038937;28;20116;-94
2021/10/31 14:10:12;;;;;;;24.65;21.27;;;;;;;;;;5036213;28;20029;-92
2021/10/31 14:12:38;;;;;;;24.42;21.02;;;;;;;;;;5032991;28;20032;-92
2021/10/31 14:15:07;;;;;;;25.40;20.63;;;;;;;;;;5033296;28;20112;-91
2021/10/31 14:17:34;;;;;;;28.67;22.90;;;;;;;;;;5032401;28;20026;-93
2021/10/31 14:20:01;;;;;;;25.48;21.10;;;;;;;;;;5024483;28;20046;-93
2021/10/31 14:22:32;;;;;;;27.73;22.77;;;;;;;;;;5015289;28;20105;-92
2021/10/31 14:25:03;;;;;;;23.50;19.55;;;;;;;;;;4997040;28;20025;-94